Time;durP1;ratioP1;P1;durP2;ratioP2;P2;SDS_P1;SDS_P2;PMS_P1;PMS_P2;Temp;Humidity;BMP_temperature;BMP_pressure;BME280_temperature;BME280_humidity;BME280_pressure;Samples;Min_cycle;Max_cycle;Signal;HPM_P1;HPM_P2
2022/11/02 00:01:25;;;;;;;107.55;75.75;;;10.90;99.90;;;;;;5022684;28;20371;-71
2022/11/02 00:03:54;;;;;;;107.05;78.75;;;11.00;99.90;;;;;;5034710;28;20466;-71
2022/11/02 00:06:20;;;;;;;106.38;76.47;;;11.10;99.90;;;;;;5046917;28;20021;-71
2022/11/02 00:08:46;;;;;;;110.82;75.53;;;11.10;99.90;;;;;;5046612;28;20031;-72
2022/11/02 00:11:12;;;;;;;92.90;68.82;;;11.10;99.90;;;;;;5053146;28;20421;-71
2022/11/02 00:13:38;;;;;;;91.28;67.40;;;11.00;99.90;;;;;;5053202;28;20040;-72
2022/11/02 00:16:07;;;;;;;96.93;72.80;;;11.00;99.90;;;;;;5046349;28;20040;-71
2022/11/02 00:18:34;;;;;;;100.68;73.20;;;11.00;99.90;;;;;;5034914;28;20048;-72
2022/11/02 00:21:01;;;;;;;105.00;74.30;;;11.00;99.90;;;;;;5051410;28;20048;-70
2022/11/02 00:23:27;;;;;;;100.88;72.20;;;11.00;99.90;;;;;;5045245;28;20027;-71
2022/11/02 00:25:55;;;;;;;88.57;64.13;;;10.90;99.90;;;;;;5050261;28;20466;-71
2022/11/02 00:28:21;;;;;;;95.05;68.82;;;11.00;99.90;;;;;;5052966;28;20044;-72
2022/11/02 00:30:47;;;;;;;97.43;70.78;;;10.90;99.90;;;;;;5037659;28;20029;-73
2022/11/02 00:33:13;;;;;;;100.72;73.28;;;10.80;99.90;;;;;;5050690;28;20032;-71
2022/11/02 00:35:40;;;;;;;97.93;71.85;;;10.70;99.90;;;;;;5047802;28;20080;-71
2022/11/02 00:38:06;;;;;;;95.35;65.43;;;10.60;99.90;;;;;;5032406;28;20029;-70
2022/11/02 00:40:32;;;;;;;90.68;68.20;;;10.60;99.90;;;;;;5034909;28;20419;-70
2022/11/02 00:42:58;;;;;;;96.43;65.45;;;10.50;99.90;;;;;;5034744;28;20172;-71
2022/11/02 00:45:24;;;;;;;88.38;69.18;;;10.40;99.90;;;;;;5053179;28;20068;-70
2022/11/02 00:48:05;;;;;;;96.32;66.45;;;10.40;99.90;;;;;;5051223;28;20124;-70
2022/11/02 00:50:31;;;;;;;96.38;67.40;;;10.50;99.90;;;;;;5051021;28;20094;-72
2022/11/02 00:52:57;;;;;;;99.03;68.28;;;10.40;99.90;;;;;;5041379;28;20057;-71
2022/11/02 00:55:23;;;;;;;92.90;66.38;;;10.40;99.90;;;;;;5025535;28;20167;-71
2022/11/02 00:57:53;;;;;;;83.20;60.72;;;10.50;99.90;;;;;;5048975;28;20032;-71
2022/11/02 01:00:19;;;;;;;87.10;64.75;;;10.50;99.90;;;;;;5051268;28;20479;-71
2022/11/02 01:02:46;;;;;;;85.50;60.13;;;10.50;99.90;;;;;;5051967;28;20036;-71
2022/11/02 01:05:12;;;;;;;86.30;61.70;;;10.50;99.90;;;;;;5052505;28;20025;-70
2022/11/02 01:07:39;;;;;;;80.75;58.53;;;10.60;99.90;;;;;;5051207;28;20024;-70
2022/11/02 01:10:07;;;;;;;88.68;60.65;;;10.60;99.90;;;;;;5036587;28;20021;-71
2022/11/02 01:12:36;;;;;;;86.93;59.15;;;10.60;99.90;;;;;;5052044;28;20494;-69
2022/11/02 01:15:02;;;;;;;96.65;65.07;;;10.60;99.90;;;;;;5051541;28;20438;-70
2022/11/02 01:17:28;;;;;;;80.00;60.13;;;10.60;99.90;;;;;;5052088;28;20029;-70
2022/11/02 01:19:54;;;;;;;71.35;53.15;;;10.60;99.90;;;;;;5041622;28;20075;-71
2022/11/02 01:22:20;;;;;;;78.95;56.03;;;10.60;99.90;;;;;;5052028;28;20017;-69
2022/11/02 01:24:45;;;;;;;75.53;49.05;;;10.60;99.90;;;;;;5045119;28;20028;-70
2022/11/02 01:27:11;;;;;;;71.28;55.05;;;10.60;99.90;;;;;;5043002;28;20414;-69
2022/11/02 01:29:37;;;;;;;84.32;58.85;;;10.60;99.90;;;;;;5050127;28;20033;-70
2022/11/02 01:32:03;;;;;;;65.63;47.92;;;10.50;99.90;;;;;;5043107;28;20124;-70
2022/11/02 01:34:29;;;;;;;77.70;58.67;;;10.50;99.90;;;;;;5051989;28;20076;-71
2022/11/02 01:36:55;;;;;;;77.07;54.30;;;10.60;99.90;;;;;;5043730;28;20068;-69
2022/11/02 01:39:21;;;;;;;70.60;50.72;;;10.60;99.90;;;;;;5043363;28;20045;-70
2022/11/02 01:41:51;;;;;;;64.03;50.88;;;10.60;99.90;;;;;;5052071;28;20033;-74
2022/11/02 01:44:33;;;;;;;69.60;48.45;;;10.60;99.90;;;;;;5033371;28;20033;-69
2022/11/02 01:47:18;;;;;;;70.35;49.20;;;10.50;99.90;;;;;;5051859;28;20021;-69
2022/11/02 01:49:46;;;;;;;81.13;54.80;;;10.40;99.90;;;;;;5050428;28;20040;-70
2022/11/02 01:52:41;;;;;;;67.97;51.47;;;10.40;99.90;;;;;;5050778;28;20044;-73
2022/11/02 01:55:24;;;;;;;69.80;49.10;;;10.40;99.90;;;;;;4974024;28;20082;-70
2022/11/02 01:57:57;;;;;;;68.18;51.13;;;10.30;99.90;;;;;;4990259;28;20513;-70
2022/11/02 02:00:23;;;;;;;68.10;49.95;;;10.30;99.90;;;;;;4969907;28;20081;-70
2022/11/02 02:03:07;;;;;;;69.25;49.95;;;10.20;99.90;;;;;;4938386;28;20038;-70
2022/11/02 02:05:39;;;;;;;67.95;50.15;;;10.20;99.90;;;;;;4988743;28;20038;-69
2022/11/02 02:08:07;;;;;;;73.72;51.88;;;10.30;99.90;;;;;;4959213;28;20523;-71
2022/11/02 02:10:34;;;;;;;80.00;53.25;;;10.20;99.90;;;;;;4959115;28;20441;-69
2022/11/02 02:13:04;;;;;;;74.07;49.95;;;10.20;99.90;;;;;;4968609;28;20066;-70
2022/11/02 02:15:40;;;;;;;67.85;49.95;;;10.30;99.90;;;;;;4973753;28;20043;-69
2022/11/02 02:18:21;;;;;;;67.80;51.35;;;10.30;99.90;;;;;;4989988;28;20066;-70
2022/11/02 02:21:17;;;;;;;77.97;53.15;;;10.40;99.90;;;;;;4980390;28;20034;-69
2022/11/02 02:23:53;;;;;;;68.90;53.38;;;10.40;99.90;;;;;;4979328;28;20484;-69
2022/11/02 02:26:54;;;;;;;81.97;54.97;;;10.40;99.90;;;;;;4970976;28;20162;-69
2022/11/02 02:29:23;;;;;;;77.60;53.50;;;10.40;99.90;;;;;;4967404;28;20085;-69
2022/11/02 02:32:17;;;;;;;74.03;52.20;;;10.40;99.90;;;;;;5020844;28;20047;-70
2022/11/02 02:34:46;;;;;;;68.55;49.58;;;10.40;99.90;;;;;;5041154;28;20039;-69
2022/11/02 02:37:27;;;;;;;69.95;51.08;;;10.50;99.90;;;;;;5032027;28;20033;-70
2022/11/02 02:40:14;;;;;;;72.10;51.22;;;10.60;99.90;;;;;;5047328;28;20548;-70
2022/11/02 02:42:49;;;;;;;66.22;48.63;;;10.60;99.90;;;;;;5052255;28;20040;-69
2022/11/02 02:45:36;;;;;;;78.10;51.15;;;10.60;99.90;;;;;;5041056;28;20048;-69
2022/11/02 02:48:10;;;;;;;66.25;47.38;;;10.50;99.90;;;;;;5053627;28;20072;-69
2022/11/02 02:50:50;;;;;;;65.40;46.28;;;10.50;99.90;;;;;;5053414;28;20139;-69
2022/11/02 02:53:40;;;;;;;79.28;48.30;;;10.60;99.90;;;;;;5053502;28;20040;-69
2022/11/02 02:56:08;;;;;;;58.80;41.33;;;10.60;99.90;;;;;;5053678;28;20498;-69
2022/11/02 02:58:55;;;;;;;59.88;40.47;;;10.60;99.90;;;;;;5053487;28;20021;-70
2022/11/02 03:01:22;;;;;;;60.13;41.47;;;10.60;99.90;;;;;;5041365;28;20025;-71
2022/11/02 03:03:48;;;;;;;58.25;41.08;;;10.60;99.90;;;;;;5051333;28;20606;-69
2022/11/02 03:06:21;;;;;;;78.50;42.83;;;10.60;99.90;;;;;;5053060;28;20061;-69
2022/11/02 03:09:13;;;;;;;61.78;42.88;;;10.50;99.90;;;;;;5051168;28;20488;-69
2022/11/02 03:12:01;;;;;;;70.80;47.55;;;10.40;99.90;;;;;;5053285;28;20029;-69
2022/11/02 03:14:54;;;;;;;62.42;45.80;;;10.40;99.90;;;;;;5024300;28;20176;-69
2022/11/02 03:17:32;;;;;;;72.22;49.15;;;10.40;99.90;;;;;;5036377;28;20026;-70
2022/11/02 03:20:14;;;;;;;76.38;52.15;;;10.40;99.90;;;;;;5044212;28;20037;-69
2022/11/02 03:22:46;;;;;;;65.28;47.63;;;10.20;99.90;;;;;;5038175;28;20087;-69
2022/11/02 03:25:18;;;;;;;74.45;51.38;;;10.30;99.90;;;;;;5032867;28;20113;-70
2022/11/02 03:28:06;;;;;;;104.63;64.82;;;10.30;99.90;;;;;;5032026;28;20041;-70
2022/11/02 03:30:58;;;;;;;76.65;52.65;;;10.30;99.90;;;;;;5025948;28;20026;-69
2022/11/02 03:33:53;;;;;;;75.35;52.13;;;10.20;99.90;;;;;;5026490;28;20047;-68
2022/11/02 03:36:21;;;;;;;107.25;56.80;;;10.30;99.90;;;;;;5016602;28;20053;-69
2022/11/02 03:39:09;;;;;;;122.05;74.47;;;10.20;99.90;;;;;;5028187;28;20028;-70
2022/11/02 03:41:39;;;;;;;131.80;70.18;;;10.20;99.90;;;;;;5011994;28;20867;-69
2022/11/02 03:44:10;;;;;;;111.85;62.90;;;10.20;99.90;;;;;;5027984;28;20493;-69
2022/11/02 03:46:39;;;;;;;145.77;65.53;;;10.20;99.90;;;;;;5012945;28;20025;-68
2022/11/02 03:49:09;;;;;;;228.95;67.05;;;10.20;99.90;;;;;;5018815;28;20507;-69
2022/11/02 03:51:39;;;;;;;205.73;79.80;;;10.10;99.90;;;;;;5027869;28;20518;-69
2022/11/02 03:54:16;;;;;;;193.48;74.68;;;10.10;99.90;;;;;;5027500;28;20033;-69
2022/11/02 03:56:47;;;;;;;222.55;77.82;;;10.20;99.90;;;;;;5012460;28;20067;-68
2022/11/02 03:59:13;;;;;;;294.77;80.05;;;10.10;99.90;;;;;;5027195;28;20045;-69
2022/11/02 04:01:46;;;;;;;206.38;65.22;;;10.00;99.90;;;;;;5012763;28;20472;-69
2022/11/02 04:04:13;;;;;;;150.70;59.83;;;9.90;99.90;;;;;;5010737;28;20026;-68
2022/11/02 04:06:41;;;;;;;133.15;63.65;;;9.90;99.90;;;;;;5027368;28;20121;-69
2022/11/02 04:09:08;;;;;;;127.93;58.78;;;10.00;99.90;;;;;;5027491;28;20021;-68
2022/11/02 04:14:39;;;;;;;115.07;57.63;;;9.90;99.90;;;;;;5011685;28;20050;-70
2022/11/02 04:20:02;;;;;;;107.30;65.25;;;10.00;99.90;;;;;;5014336;28;20025;-69
2022/11/02 04:25:18;;;;;;;93.85;59.72;;;10.00;99.90;;;;;;5027004;28;20038;-69
2022/11/02 04:27:51;;;;;;;89.60;54.35;;;10.10;99.90;;;;;;5015895;28;20547;-68
2022/11/02 04:30:22;;;;;;;88.65;58.15;;;10.10;99.90;;;;;;5034110;28;20080;-69
2022/11/02 04:35:42;;;;;;;111.15;62.15;;;10.10;99.90;;;;;;5013500;28;20033;-70
2022/11/02 04:41:40;;;;;;;80.13;53.35;;;10.20;99.90;;;;;;5031014;28;20026;-69
2022/11/02 04:43:43;;;;;;;90.93;57.17;;;10.30;99.90;;;;;;5010167;28;20034;-69
2022/11/02 04:46:09;;;;;;;114.47;60.70;;;10.20;99.90;;;;;;5026344;28;20026;-70
2022/11/02 04:48:37;;;;;;;103.07;53.83;;;10.20;99.90;;;;;;5026663;28;20586;-69
2022/11/02 04:51:02;;;;;;;134.98;69.78;;;10.20;99.90;;;;;;5009547;28;20029;-72
2022/11/02 04:53:29;;;;;;;91.35;58.13;;;10.10;99.90;;;;;;5026305;28;20046;-69
2022/11/02 04:55:55;;;;;;;97.22;60.78;;;10.20;99.90;;;;;;5026464;28;20064;-69
2022/11/02 04:58:21;;;;;;;103.47;59.80;;;10.10;99.90;;;;;;5010163;28;20113;-69
2022/11/02 05:00:47;;;;;;;99.03;60.45;;;10.10;99.90;;;;;;5026268;28;20096;-70
2022/11/02 05:03:13;;;;;;;93.10;56.95;;;10.20;99.90;;;;;;5010392;28;20456;-69
2022/11/02 05:05:41;;;;;;;100.50;59.00;;;10.30;99.90;;;;;;5009440;28;20026;-69
2022/11/02 05:08:07;;;;;;;108.03;58.05;;;10.40;99.90;;;;;;5014655;28;20029;-70
2022/11/02 05:10:33;;;;;;;96.57;57.03;;;10.40;99.90;;;;;;5010655;28;20034;-69
2022/11/02 05:12:59;;;;;;;85.97;58.85;;;10.40;99.90;;;;;;5025850;28;20060;-70
2022/11/02 05:15:30;;;;;;;90.95;56.15;;;10.40;99.90;;;;;;5009800;28;20563;-69
2022/11/02 05:17:57;;;;;;;146.75;68.38;;;10.40;99.90;;;;;;5025840;28;20104;-70
2022/11/02 05:20:26;;;;;;;98.03;55.40;;;10.30;99.90;;;;;;5018908;28;20025;-71
2022/11/02 05:22:52;;;;;;;99.18;58.92;;;10.40;99.90;;;;;;5025883;28;20022;-69
2022/11/02 05:25:20;;;;;;;82.70;54.60;;;10.40;99.90;;;;;;5009793;28;20033;-69
2022/11/02 05:27:46;;;;;;;86.35;53.22;;;10.50;99.90;;;;;;5014858;28;20112;-75
2022/11/02 05:30:13;;;;;;;81.30;53.00;;;10.50;99.90;;;;;;5010677;28;20022;-69
2022/11/02 05:32:40;;;;;;;87.45;48.55;;;10.50;99.90;;;;;;5019552;28;20072;-69
2022/11/02 05:35:06;;;;;;;73.30;49.22;;;10.60;99.90;;;;;;5025955;28;20042;-69
2022/11/02 05:37:33;;;;;;;85.70;49.08;;;10.60;99.90;;;;;;5026314;28;20411;-68
2022/11/02 05:39:58;;;;;;;83.40;48.20;;;10.60;99.90;;;;;;5009174;28;20026;-69
2022/11/02 05:42:24;;;;;;;87.82;45.38;;;10.50;99.90;;;;;;5025573;28;20037;-68
2022/11/02 05:44:51;;;;;;;76.50;46.83;;;10.50;99.90;;;;;;5009436;28;20383;-69
2022/11/02 05:47:17;;;;;;;73.10;46.92;;;10.40;99.90;;;;;;5025571;28;20022;-68
2022/11/02 05:49:43;;;;;;;71.65;44.28;;;10.40;99.90;;;;;;5010348;28;20108;-70
2022/11/02 05:52:08;;;;;;;137.13;60.38;;;10.40;99.90;;;;;;5010919;28;20030;-68
2022/11/02 05:54:34;;;;;;;186.30;75.72;;;10.30;99.90;;;;;;5010346;28;20129;-68
2022/11/02 05:57:00;;;;;;;75.60;48.42;;;10.20;99.90;;;;;;5010626;28;20025;-70
2022/11/02 05:59:26;;;;;;;119.95;56.10;;;10.30;99.90;;;;;;5010992;28;20460;-69
2022/11/02 06:01:51;;;;;;;64.80;44.00;;;10.30;99.90;;;;;;5010411;28;20069;-70
2022/11/02 06:04:17;;;;;;;67.18;44.47;;;10.30;99.90;;;;;;5009687;28;20022;-69
2022/11/02 06:06:44;;;;;;;80.70;45.50;;;10.30;99.90;;;;;;5009357;28;20388;-69
2022/11/02 06:09:10;;;;;;;91.72;44.28;;;10.30;99.90;;;;;;5009623;28;20018;-70
2022/11/02 06:11:36;;;;;;;112.82;44.58;;;10.30;99.90;;;;;;5009581;28;20040;-70
2022/11/02 06:14:02;;;;;;;71.43;42.28;;;10.20;99.90;;;;;;5009945;28;20030;-70
2022/11/02 06:16:29;;;;;;;80.82;45.35;;;10.20;99.90;;;;;;5006641;28;20110;-69
2022/11/02 06:18:55;;;;;;;140.05;57.72;;;10.20;99.90;;;;;;5011511;28;20025;-74
2022/11/02 06:21:20;;;;;;;75.57;44.63;;;10.10;99.90;;;;;;5013406;28;20022;-68
2022/11/02 06:23:50;;;;;;;71.35;44.30;;;10.30;99.90;;;;;;5013299;28;20045;-70
2022/11/02 06:26:16;;;;;;;74.55;43.92;;;10.40;99.90;;;;;;5009554;28;20033;-72
2022/11/02 06:28:42;;;;;;;88.07;44.63;;;10.40;99.90;;;;;;5010727;28;20033;-69
2022/11/02 06:31:09;;;;;;;97.22;47.42;;;10.50;99.90;;;;;;5011424;28;20060;-68
2022/11/02 06:33:35;;;;;;;72.53;43.88;;;10.30;99.90;;;;;;5012146;28;20475;-69
2022/11/02 06:36:01;;;;;;;75.05;42.40;;;10.40;99.90;;;;;;5013642;28;20024;-68
2022/11/02 06:38:26;;;;;;;58.28;41.47;;;10.40;99.90;;;;;;5013552;28;20014;-69
2022/11/02 06:40:57;;;;;;;70.50;39.03;;;10.40;99.90;;;;;;5013368;28;20030;-72
2022/11/02 06:43:24;;;;;;;92.45;43.35;;;10.50;99.90;;;;;;5013490;28;20058;-68
2022/11/02 06:45:53;;;;;;;77.22;41.85;;;10.50;99.90;;;;;;5013230;28;20040;-69
2022/11/02 06:48:19;;;;;;;65.07;39.60;;;10.40;99.90;;;;;;5013033;28;20022;-69
2022/11/02 06:50:45;;;;;;;94.38;43.22;;;10.40;99.90;;;;;;5013187;28;20040;-68
2022/11/02 06:53:11;;;;;;;81.63;38.90;;;10.40;99.90;;;;;;5027887;28;20040;-69
2022/11/02 06:55:36;;;;;;;89.40;40.55;;;10.20;99.90;;;;;;5012672;28;20588;-68
2022/11/02 06:58:03;;;;;;;65.50;40.75;;;10.10;99.90;;;;;;5017106;28;20053;-69
2022/11/02 07:00:29;;;;;;;79.40;39.25;;;10.10;99.90;;;;;;5012674;28;20022;-68
2022/11/02 07:03:02;;;;;;;74.20;38.08;;;10.10;99.90;;;;;;5012763;28;20021;-69
2022/11/02 07:05:28;;;;;;;73.53;38.40;;;10.10;99.90;;;;;;5012557;28;20018;-69
2022/11/02 07:07:54;;;;;;;86.38;43.30;;;10.00;99.90;;;;;;5012371;28;20109;-69
2022/11/02 07:10:20;;;;;;;62.03;36.53;;;9.90;99.90;;;;;;5012371;28;20113;-69
2022/11/02 07:12:46;;;;;;;87.82;40.75;;;9.90;99.90;;;;;;5012493;28;20022;-70
2022/11/02 07:15:12;;;;;;;65.47;32.22;;;9.80;99.90;;;;;;5012310;28;20042;-69
2022/11/02 07:17:39;;;;;;;63.05;33.00;;;9.80;99.90;;;;;;5012473;28;20022;-69
2022/11/02 07:20:05;;;;;;;94.43;35.33;;;9.80;99.90;;;;;;5015866;28;20444;-70
2022/11/02 07:22:31;;;;;;;115.88;37.63;;;9.80;99.90;;;;;;5012604;28;20014;-70
2022/11/02 07:24:57;;;;;;;84.93;35.75;;;9.70;99.90;;;;;;5010603;28;20095;-70
2022/11/02 07:27:23;;;;;;;59.03;33.17;;;9.70;99.90;;;;;;5012587;28;20018;-69
2022/11/02 07:29:49;;;;;;;90.32;37.42;;;9.80;99.90;;;;;;5011429;28;20025;-69
2022/11/02 07:32:14;;;;;;;82.95;35.60;;;9.80;99.90;;;;;;5012902;28;20030;-69
2022/11/02 07:34:40;;;;;;;63.53;35.03;;;9.80;99.90;;;;;;5046635;28;20043;-69
2022/11/02 07:37:06;;;;;;;62.10;35.47;;;9.80;99.90;;;;;;5044718;28;20018;-71
2022/11/02 07:39:32;;;;;;;68.18;37.08;;;9.90;99.90;;;;;;5035852;28;20060;-70
2022/11/02 07:41:58;;;;;;;60.75;37.20;;;9.90;99.90;;;;;;5040304;28;20025;-70
2022/11/02 07:44:24;;;;;;;73.15;34.97;;;9.90;99.90;;;;;;5044370;28;20037;-71
2022/11/02 07:46:53;;;;;;;72.78;35.63;;;9.90;99.90;;;;;;5041581;28;20013;-70
2022/11/02 07:49:18;;;;;;;67.57;37.92;;;9.90;99.90;;;;;;5041752;28;20033;-70
2022/11/02 07:51:44;;;;;;;67.30;38.03;;;10.00;99.90;;;;;;5033126;28;20064;-71
2022/11/02 07:54:10;;;;;;;64.78;39.30;;;10.00;99.90;;;;;;5032641;28;20045;-72
2022/11/02 07:56:36;;;;;;;66.20;37.28;;;10.10;99.90;;;;;;5048091;28;20032;-73
2022/11/02 07:59:02;;;;;;;76.93;39.80;;;10.20;99.90;;;;;;5052701;28;20090;-71
2022/11/02 08:01:27;;;;;;;72.10;41.35;;;10.20;99.90;;;;;;5051011;28;20025;-73
2022/11/02 08:03:53;;;;;;;61.33;35.72;;;10.20;99.90;;;;;;5035691;28;20029;-71
2022/11/02 08:06:19;;;;;;;57.95;34.88;;;10.20;99.90;;;;;;5037462;28;20024;-71
2022/11/02 08:08:45;;;;;;;56.10;32.88;;;10.20;99.90;;;;;;5038122;28;20070;-70
2022/11/02 08:11:11;;;;;;;67.82;33.88;;;10.10;99.90;;;;;;5041260;28;20048;-71
2022/11/02 08:13:37;;;;;;;62.20;33.42;;;10.10;99.90;;;;;;5037568;28;20060;-71
2022/11/02 08:16:03;;;;;;;61.72;38.72;;;10.20;99.90;;;;;;5045875;28;20041;-71
2022/11/02 08:18:29;;;;;;;74.03;38.17;;;10.20;99.90;;;;;;5045213;28;20017;-72
2022/11/02 08:20:56;;;;;;;68.85;37.15;;;10.20;99.90;;;;;;5042145;28;20059;-71
2022/11/02 08:23:24;;;;;;;81.45;40.72;;;10.20;99.90;;;;;;5038174;28;20029;-72
2022/11/02 08:25:51;;;;;;;65.38;34.85;;;10.20;99.90;;;;;;5049759;28;20048;-74
2022/11/02 08:28:23;;;;;;;52.55;33.05;;;10.30;99.90;;;;;;5050075;28;20044;-74
2022/11/02 08:30:49;;;;;;;62.05;33.20;;;10.40;99.90;;;;;;5038047;28;20029;-73
2022/11/02 08:33:17;;;;;;;60.35;35.78;;;10.50;99.90;;;;;;5046363;28;20379;-76
2022/11/02 08:35:44;;;;;;;69.40;36.50;;;10.60;99.90;;;;;;5043126;28;20029;-72
2022/11/02 08:38:10;;;;;;;52.55;32.95;;;10.70;99.90;;;;;;5037901;28;20021;-72
2022/11/02 08:40:36;;;;;;;65.65;36.88;;;10.80;99.90;;;;;;5034658;28;20029;-72
2022/11/02 08:43:04;;;;;;;56.75;34.20;;;11.00;99.90;;;;;;5038434;28;20035;-72
2022/11/02 08:45:33;;;;;;;56.78;35.22;;;11.10;99.90;;;;;;5046871;28;20498;-72
2022/11/02 08:47:59;;;;;;;53.75;33.65;;;11.30;99.90;;;;;;5051833;28;20031;-71
2022/11/02 08:50:26;;;;;;;57.17;33.90;;;11.40;99.90;;;;;;5051707;28;20112;-72
2022/11/02 08:52:52;;;;;;;56.38;34.92;;;11.50;99.90;;;;;;5051816;28;20017;-72
2022/11/02 08:55:18;;;;;;;56.72;34.78;;;11.50;99.90;;;;;;5040931;28;20041;-72
2022/11/02 08:57:56;;;;;;;59.90;33.08;;;11.60;99.90;;;;;;5041747;28;20054;-72
2022/11/02 09:00:24;;;;;;;51.50;32.22;;;11.70;99.90;;;;;;5039350;28;20115;-72
2022/11/02 09:03:08;;;;;;;53.15;36.10;;;11.80;99.90;;;;;;5046415;28;20063;-71
2022/11/02 09:05:39;;;;;;;64.00;38.88;;;11.80;99.90;;;;;;5034390;28;20040;-71
2022/11/02 09:08:09;;;;;;;63.75;39.58;;;11.70;99.90;;;;;;5050441;28;20024;-71
2022/11/02 09:10:36;;;;;;;54.05;35.83;;;11.50;99.90;;;;;;5044581;28;20032;-72
2022/11/02 09:13:04;;;;;;;60.50;36.85;;;11.40;99.90;;;;;;5044025;28;20029;-72
2022/11/02 09:15:33;;;;;;;54.92;34.38;;;11.30;99.90;;;;;;5030404;28;20132;-72
2022/11/02 09:17:58;;;;;;;49.70;30.08;;;11.30;99.90;;;;;;5026799;28;20026;-71
2022/11/02 09:20:24;;;;;;;52.83;33.75;;;11.40;99.90;;;;;;5032776;28;20021;-72
2022/11/02 09:22:50;;;;;;;60.22;34.28;;;11.40;99.90;;;;;;5035349;28;20026;-71
2022/11/02 09:25:16;;;;;;;60.72;34.92;;;11.40;99.90;;;;;;5030252;28;20494;-72
2022/11/02 09:27:42;;;;;;;55.22;34.40;;;11.40;99.90;;;;;;5030646;28;20051;-73
2022/11/02 09:30:10;;;;;;;64.32;38.03;;;11.40;99.90;;;;;;5048217;28;20033;-71
2022/11/02 09:32:37;;;;;;;63.08;36.30;;;11.30;99.90;;;;;;5042624;28;20094;-72
2022/11/02 09:35:08;;;;;;;63.75;36.92;;;11.40;99.90;;;;;;5047600;28;20045;-72
2022/11/02 09:37:34;;;;;;;60.38;34.38;;;11.30;99.90;;;;;;5030529;28;20385;-72
2022/11/02 09:40:00;;;;;;;71.15;39.78;;;11.40;99.90;;;;;;5049334;28;20029;-72
2022/11/02 09:43:05;;;;;;;55.30;37.47;;;11.50;99.90;;;;;;5051359;28;20025;-72
2022/11/02 09:45:34;;;;;;;69.10;38.47;;;11.40;99.90;;;;;;5050691;28;20542;-72
2022/11/02 09:48:12;;;;;;;57.85;36.83;;;11.40;99.90;;;;;;5034566;28;20033;-74
2022/11/02 09:50:47;;;;;;;64.82;37.38;;;11.50;99.90;;;;;;5028914;28;20056;-71
2022/11/02 09:53:20;;;;;;;71.22;37.38;;;11.50;99.90;;;;;;5039293;28;20029;-72
2022/11/02 09:55:52;;;;;;;59.30;35.65;;;11.50;99.90;;;;;;5055604;28;20060;-72
2022/11/02 09:58:26;;;;;;;72.78;38.03;;;11.60;99.90;;;;;;5052744;28;20033;-72
2022/11/02 10:00:58;;;;;;;64.05;35.20;;;11.50;99.90;;;;;;5023677;28;20057;-72
2022/11/02 10:04:04;;;;;;;64.53;36.50;;;11.50;99.90;;;;;;5036156;28;20033;-76
2022/11/02 10:06:34;;;;;;;55.28;33.70;;;11.50;99.90;;;;;;4978420;28;20046;-72
2022/11/02 10:09:12;;;;;;;60.05;35.58;;;11.60;99.90;;;;;;4992271;28;20057;-73
2022/11/02 10:11:43;;;;;;;59.83;35.50;;;11.50;99.90;;;;;;4989504;28;20061;-73
2022/11/02 10:14:34;;;;;;;50.20;32.57;;;11.40;99.90;;;;;;4982167;28;20113;-73
2022/11/02 10:17:10;;;;;;;60.60;33.05;;;11.50;99.90;;;;;;4972783;28;20043;-72
2022/11/02 10:19:39;;;;;;;55.50;33.60;;;11.40;99.90;;;;;;4976442;28;20089;-71
2022/11/02 10:22:10;;;;;;;70.85;35.25;;;11.40;99.90;;;;;;4976283;28;20042;-71
2022/11/02 10:24:42;;;;;;;62.33;37.75;;;11.50;99.90;;;;;;4980387;28;20487;-71
2022/11/02 10:27:34;;;;;;;64.13;35.15;;;11.60;99.90;;;;;;4978789;28;20588;-71
2022/11/02 10:30:18;;;;;;;62.28;34.95;;;11.50;99.90;;;;;;4985658;28;20050;-71
2022/11/02 10:32:49;;;;;;;66.53;41.20;;;11.50;99.90;;;;;;4979145;28;20615;-73
2022/11/02 10:35:38;;;;;;;57.92;35.92;;;11.40;99.90;;;;;;4971481;28;20050;-71
2022/11/02 10:38:25;;;;;;;54.42;33.78;;;11.40;99.90;;;;;;4969666;28;20035;-73
2022/11/02 10:41:16;;;;;;;59.28;35.08;;;11.40;99.90;;;;;;4971794;28;20065;-72
2022/11/02 10:43:51;;;;;;;66.15;37.97;;;11.30;99.90;;;;;;5000657;28;20081;-73
2022/11/02 10:46:37;;;;;;;62.47;37.05;;;11.50;99.90;;;;;;5016489;28;20040;-73
2022/11/02 10:49:08;;;;;;;58.58;36.30;;;11.40;99.90;;;;;;5044471;28;20029;-73
2022/11/02 10:51:34;;;;;;;65.65;36.03;;;11.50;99.90;;;;;;5033934;28;20034;-74
2022/11/02 10:53:59;;;;;;;57.10;36.13;;;11.50;99.90;;;;;;5037445;28;20030;-73
2022/11/02 10:56:31;;;;;;;59.97;36.22;;;11.60;99.90;;;;;;5031727;28;20057;-73
2022/11/02 10:59:08;;;;;;;55.38;35.90;;;11.50;99.90;;;;;;5027367;28;20025;-73
2022/11/02 11:01:34;;;;;;;63.30;34.28;;;11.60;99.90;;;;;;5054449;28;20124;-74
2022/11/02 11:04:18;;;;;;;65.38;37.67;;;11.80;99.90;;;;;;5053051;28;20578;-74
2022/11/02 11:06:44;;;;;;;69.22;40.30;;;11.80;99.90;;;;;;5054303;28;20021;-75
2022/11/02 11:09:21;;;;;;;52.50;34.28;;;11.80;99.90;;;;;;5054075;28;20020;-73
2022/11/02 11:12:12;;;;;;;63.10;36.15;;;12.00;99.90;;;;;;5053918;28;20040;-73
2022/11/02 11:14:48;;;;;;;52.03;31.33;;;12.10;99.90;;;;;;5031717;28;20103;-73
2022/11/02 11:17:28;;;;;;;48.17;30.60;;;12.20;99.90;;;;;;5053635;28;20029;-74
2022/11/02 11:19:56;;;;;;;53.60;32.78;;;12.20;99.90;;;;;;5052557;28;20036;-75
2022/11/02 11:22:29;;;;;;;49.63;30.10;;;12.20;99.90;;;;;;5053673;28;20018;-73
2022/11/02 11:25:26;;;;;;;50.70;31.08;;;12.20;99.90;;;;;;5053578;28;20479;-74
2022/11/02 11:27:56;;;;;;;47.67;30.30;;;12.20;99.90;;;;;;5053381;28;20025;-74
2022/11/02 11:30:29;;;;;;;47.03;29.35;;;12.20;99.90;;;;;;5053638;28;20082;-73
2022/11/02 11:32:56;;;;;;;51.03;31.95;;;12.20;99.90;;;;;;5052982;28;20323;-74
2022/11/02 11:35:28;;;;;;;53.25;30.98;;;12.30;99.90;;;;;;5053660;28;20039;-74
2022/11/02 11:38:08;;;;;;;49.08;30.77;;;12.30;99.90;;;;;;5039420;28;20108;-74
2022/11/02 11:40:37;;;;;;;50.80;30.90;;;12.40;99.90;;;;;;5053600;28;20025;-73
2022/11/02 11:43:08;;;;;;;54.60;33.72;;;12.60;99.90;;;;;;5025399;28;20037;-74
2022/11/02 11:45:35;;;;;;;43.67;28.52;;;12.60;99.90;;;;;;5052987;28;20056;-74
2022/11/02 11:48:18;;;;;;;47.42;28.05;;;12.60;99.90;;;;;;5049812;28;20407;-74
2022/11/02 11:50:49;;;;;;;46.35;29.23;;;12.70;99.90;;;;;;5051908;28;20148;-74
2022/11/02 11:53:23;;;;;;;43.60;28.05;;;12.60;99.90;;;;;;5052178;28;20033;-74
2022/11/02 11:55:51;;;;;;;42.08;29.05;;;12.60;99.90;;;;;;5050923;28;20694;-74
2022/11/02 11:58:21;;;;;;;42.58;27.23;;;12.50;99.90;;;;;;5051817;28;20167;-74
2022/11/02 12:01:06;;;;;;;50.08;32.55;;;12.60;99.90;;;;;;5052465;28;20036;-74
2022/11/02 12:03:42;;;;;;;51.00;32.05;;;12.70;99.90;;;;;;5052413;28;20032;-74
2022/11/02 12:06:23;;;;;;;46.28;29.05;;;12.70;99.90;;;;;;5052641;28;20086;-74
2022/11/02 12:08:57;;;;;;;49.72;29.00;;;12.70;99.90;;;;;;5052435;28;20053;-73
2022/11/02 12:11:38;;;;;;;43.28;29.15;;;12.80;99.90;;;;;;5052896;28;20021;-74
2022/11/02 12:14:27;;;;;;;44.70;29.38;;;12.90;99.90;;;;;;5047405;28;20033;-74
2022/11/02 12:17:28;;;;;;;44.95;27.58;;;13.10;99.90;;;;;;5047046;28;20067;-74
2022/11/02 12:20:02;;;;;;;42.40;28.13;;;13.00;99.90;;;;;;5034474;28;20368;-74
2022/11/02 12:22:35;;;;;;;41.10;28.55;;;13.00;99.90;;;;;;5052318;28;20029;-74
2022/11/02 12:25:04;;;;;;;;;;;12.90;99.90;;;;;;5053250;28;20056;-74
2022/11/02 12:27:50;;;;;;;48.95;27.80;;;13.00;99.90;;;;;;5052609;28;19908;-74
2022/11/02 12:30:22;;;;;;;49.10;29.70;;;13.00;99.90;;;;;;5038084;28;20053;-74
2022/11/02 12:33:12;;;;;;;52.15;33.83;;;13.00;99.90;;;;;;5052282;28;20024;-74
2022/11/02 12:36:10;;;;;;;52.45;33.00;;;12.80;99.90;;;;;;5050965;28;20040;-74
2022/11/02 12:39:09;;;;;;;61.45;37.47;;;12.90;99.90;;;;;;5023741;28;20040;-75
2022/11/02 12:41:44;;;;;;;58.08;33.88;;;12.90;99.90;;;;;;5044986;28;20452;-74
2022/11/02 12:44:48;;;;;;;51.20;33.25;;;13.00;99.90;;;;;;5051766;28;20068;-74
2022/11/02 12:47:22;;;;;;;50.05;32.70;;;13.10;99.90;;;;;;5052026;28;20029;-74
2022/11/02 12:50:04;;;;;;;44.95;29.23;;;13.10;99.90;;;;;;5051797;28;20028;-74
2022/11/02 12:52:47;;;;;;;45.20;27.00;;;13.20;99.90;;;;;;5051378;28;20029;-74
2022/11/02 12:55:20;;;;;;;44.60;27.08;;;13.20;99.90;;;;;;5026469;28;20042;-74
2022/11/02 12:57:47;;;;;;;43.00;27.63;;;13.20;99.90;;;;;;5043206;28;20035;-74
2022/11/02 13:00:19;;;;;;;42.85;28.25;;;13.10;99.90;;;;;;5042844;28;20024;-74
2022/11/02 13:03:14;;;;;;;44.05;28.25;;;13.20;99.90;;;;;;5051428;28;20040;-74